Austinburg, Ohio
Current Conditions -  °F | °C
As of 8:07 AM on Thursday 30 Oct 2014 (Local Time) from KHZY Reporting Station
Light Rain Light Rain  
Wind Chill: 39°   Ceiling: 2700
Heat Index: 43°   Visibility: 10mi
Dew Point: 41°   Wind: 7mph
Humidity: 93%   Direction: 270°W
Pressure: 30.1"   Gusts: NA
Location:  41.77°N, 80.85°W
Report Text: KHZY 301207Z AUTO 27006KT 10SM -RA FEW012 BKN027 OVC035 06/05 A3010 RMK AO2 P0000 T00610050
Loading
Personal Weather Stations






























Interactive Weather Map
Tropical Storm Tracking
New forecast layout! Learn more

10-Day Weather Forecast

Advertisements
Track Severe Weather on mobile